sensor_id;sensor_type;location;lat;lon;timestamp;temperature;humidity
65419;DHT22;52027;50.658;14.004;2022-12-18T00:00:53;21.15;30.23
65419;DHT22;52027;50.658;14.004;2022-12-18T00:03:18;21.18;30.27
65419;DHT22;52027;50.658;14.004;2022-12-18T00:05:51;21.20;30.27
65419;DHT22;52027;50.658;14.004;2022-12-18T00:08:17;21.18;30.22
65419;DHT22;52027;50.658;14.004;2022-12-18T00:10:45;21.20;30.23
65419;DHT22;52027;50.658;14.004;2022-12-18T00:13:11;21.18;30.20
65419;DHT22;52027;50.658;14.004;2022-12-18T00:15:38;21.18;30.20
65419;DHT22;52027;50.658;14.004;2022-12-18T00:18:04;21.18;30.22
65419;DHT22;52027;50.658;14.004;2022-12-18T00:20:30;21.20;30.16
65419;DHT22;52027;50.658;14.004;2022-12-18T00:22:56;21.20;30.20
65419;DHT22;52027;50.658;14.004;2022-12-18T00:25:21;21.20;30.20
65419;DHT22;52027;50.658;14.004;2022-12-18T00:27:47;21.21;30.19
65419;DHT22;52027;50.658;14.004;2022-12-18T00:30:12;21.23;30.19
65419;DHT22;52027;50.658;14.004;2022-12-18T00:32:38;21.21;30.10
65419;DHT22;52027;50.658;14.004;2022-12-18T00:35:04;21.21;30.14
65419;DHT22;52027;50.658;14.004;2022-12-18T00:37:30;21.24;30.13
65419;DHT22;52027;50.658;14.004;2022-12-18T00:39:55;21.21;30.13
65419;DHT22;52027;50.658;14.004;2022-12-18T00:42:21;21.23;30.16
65419;DHT22;52027;50.658;14.004;2022-12-18T00:45:05;21.23;30.13
65419;DHT22;52027;50.658;14.004;2022-12-18T00:47:31;21.23;30.14
65419;DHT22;52027;50.658;14.004;2022-12-18T00:49:56;21.24;30.14
65419;DHT22;52027;50.658;14.004;2022-12-18T00:52:21;21.23;30.13
65419;DHT22;52027;50.658;14.004;2022-12-18T00:54:47;21.23;30.16
65419;DHT22;52027;50.658;14.004;2022-12-18T00:57:12;21.21;30.06
65419;DHT22;52027;50.658;14.004;2022-12-18T00:59:37;21.21;30.09
65419;DHT22;52027;50.658;14.004;2022-12-18T01:02:03;21.23;30.11
65419;DHT22;52027;50.658;14.004;2022-12-18T01:04:31;21.21;30.16
65419;DHT22;52027;50.658;14.004;2022-12-18T01:06:56;21.21;30.11
65419;DHT22;52027;50.658;14.004;2022-12-18T01:09:22;21.23;30.10
65419;DHT22;52027;50.658;14.004;2022-12-18T01:11:47;21.25;30.11
65419;DHT22;52027;50.658;14.004;2022-12-18T01:14:12;21.25;30.00
65419;DHT22;52027;50.658;14.004;2022-12-18T01:16:37;21.25;30.05
65419;DHT22;52027;50.658;14.004;2022-12-18T01:19:03;21.24;30.03
65419;DHT22;52027;50.658;14.004;2022-12-18T01:21:28;21.25;30.05
65419;DHT22;52027;50.658;14.004;2022-12-18T01:23:55;21.23;30.00
65419;DHT22;52027;50.658;14.004;2022-12-18T01:26:21;21.27;30.02
65419;DHT22;52027;50.658;14.004;2022-12-18T01:28:47;21.23;30.05
65419;DHT22;52027;50.658;14.004;2022-12-18T01:33:43;21.25;29.98
65419;DHT22;52027;50.658;14.004;2022-12-18T01:38:45;21.25;29.98
65419;DHT22;52027;50.658;14.004;2022-12-18T01:41:11;21.25;29.97
65419;DHT22;52027;50.658;14.004;2022-12-18T01:43:41;21.25;30.00
65419;DHT22;52027;50.658;14.004;2022-12-18T01:46:07;21.24;30.00
65419;DHT22;52027;50.658;14.004;2022-12-18T01:48:32;21.23;29.95
65419;DHT22;52027;50.658;14.004;2022-12-18T01:50:57;21.21;29.94
65419;DHT22;52027;50.658;14.004;2022-12-18T01:53:26;21.25;29.97
65419;DHT22;52027;50.658;14.004;2022-12-18T01:55:54;21.20;29.95
65419;DHT22;52027;50.658;14.004;2022-12-18T01:58:27;21.23;29.97
65419;DHT22;52027;50.658;14.004;2022-12-18T02:00:55;21.24;29.92
65419;DHT22;52027;50.658;14.004;2022-12-18T02:03:21;21.24;29.97
65419;DHT22;52027;50.658;14.004;2022-12-18T02:06:01;21.21;29.92
65419;DHT22;52027;50.658;14.004;2022-12-18T02:09:06;21.24;29.97
65419;DHT22;52027;50.658;14.004;2022-12-18T02:11:46;21.24;29.91
65419;DHT22;52027;50.658;14.004;2022-12-18T02:14:30;21.21;29.93
65419;DHT22;52027;50.658;14.004;2022-12-18T02:17:11;21.21;29.92
65419;DHT22;52027;50.658;14.004;2022-12-18T02:28:31;21.18;29.98
65419;DHT22;52027;50.658;14.004;2022-12-18T02:30:59;21.21;29.93
65419;DHT22;52027;50.658;14.004;2022-12-18T02:33:27;21.18;29.93
65419;DHT22;52027;50.658;14.004;2022-12-18T02:35:55;21.20;29.90
65419;DHT22;52027;50.658;14.004;2022-12-18T02:38:23;21.18;29.92
65419;DHT22;52027;50.658;14.004;2022-12-18T02:40:49;21.18;29.89
65419;DHT22;52027;50.658;14.004;2022-12-18T02:43:15;21.20;29.90
65419;DHT22;52027;50.658;14.004;2022-12-18T02:45:52;21.21;29.81
65419;DHT22;52027;50.658;14.004;2022-12-18T02:48:26;21.20;29.85
65419;DHT22;52027;50.658;14.004;2022-12-18T02:51:10;21.20;29.81
65419;DHT22;52027;50.658;14.004;2022-12-18T02:53:45;21.20;29.85
65419;DHT22;52027;50.658;14.004;2022-12-18T02:56:18;21.21;29.84
65419;DHT22;52027;50.658;14.004;2022-12-18T02:59:00;21.20;29.84
65419;DHT22;52027;50.658;14.004;2022-12-18T03:04:02;21.20;29.81
65419;DHT22;52027;50.658;14.004;2022-12-18T03:06:40;21.20;29.81
65419;DHT22;52027;50.658;14.004;2022-12-18T03:09:09;21.20;29.82
65419;DHT22;52027;50.658;14.004;2022-12-18T03:11:39;21.21;29.81
65419;DHT22;52027;50.658;14.004;2022-12-18T03:14:25;21.20;29.79
65419;DHT22;52027;50.658;14.004;2022-12-18T03:16:54;21.20;29.78
65419;DHT22;52027;50.658;14.004;2022-12-18T03:19:26;21.20;29.77
65419;DHT22;52027;50.658;14.004;2022-12-18T03:21:54;21.18;29.78
65419;DHT22;52027;50.658;14.004;2022-12-18T03:24:21;21.17;29.78
65419;DHT22;52027;50.658;14.004;2022-12-18T03:26:51;21.18;29.81
65419;DHT22;52027;50.658;14.004;2022-12-18T03:29:40;21.20;29.74
65419;DHT22;52027;50.658;14.004;2022-12-18T03:32:11;21.17;29.76
65419;DHT22;52027;50.658;14.004;2022-12-18T03:34:41;21.17;29.73
65419;DHT22;52027;50.658;14.004;2022-12-18T03:37:07;21.17;29.74
65419;DHT22;52027;50.658;14.004;2022-12-18T03:39:34;21.18;29.76
65419;DHT22;52027;50.658;14.004;2022-12-18T03:50:17;21.15;29.76
65419;DHT22;52027;50.658;14.004;2022-12-18T03:55:19;21.18;29.73
65419;DHT22;52027;50.658;14.004;2022-12-18T03:57:47;21.18;29.81
65419;DHT22;52027;50.658;14.004;2022-12-18T04:00:15;21.14;29.71
65419;DHT22;52027;50.658;14.004;2022-12-18T04:02:48;21.15;29.73
65419;DHT22;52027;50.658;14.004;2022-12-18T04:05:16;21.15;29.74
65419;DHT22;52027;50.658;14.004;2022-12-18T04:07:43;21.15;29.73
65419;DHT22;52027;50.658;14.004;2022-12-18T04:10:10;21.15;29.74
65419;DHT22;52027;50.658;14.004;2022-12-18T04:12:37;21.15;29.71
65419;DHT22;52027;50.658;14.004;2022-12-18T04:15:03;21.15;29.74
65419;DHT22;52027;50.658;14.004;2022-12-18T04:17:28;21.14;29.71
65419;DHT22;52027;50.658;14.004;2022-12-18T04:19:54;21.14;29.72
65419;DHT22;52027;50.658;14.004;2022-12-18T04:22:19;21.14;29.74
65419;DHT22;52027;50.658;14.004;2022-12-18T04:24:44;21.11;29.68
65419;DHT22;52027;50.658;14.004;2022-12-18T04:27:10;21.14;29.65
65419;DHT22;52027;50.658;14.004;2022-12-18T04:29:35;21.15;29.66
65419;DHT22;52027;50.658;14.004;2022-12-18T04:32:00;21.15;29.68
65419;DHT22;52027;50.658;14.004;2022-12-18T04:34:26;21.15;29.71
65419;DHT22;52027;50.658;14.004;2022-12-18T04:36:51;21.12;29.66
65419;DHT22;52027;50.658;14.004;2022-12-18T04:39:16;21.14;29.66
65419;DHT22;52027;50.658;14.004;2022-12-18T04:41:44;21.14;29.65
65419;DHT22;52027;50.658;14.004;2022-12-18T04:44:10;21.12;29.66
65419;DHT22;52027;50.658;14.004;2022-12-18T04:46:35;21.11;29.68
65419;DHT22;52027;50.658;14.004;2022-12-18T04:49:00;21.10;29.71
65419;DHT22;52027;50.658;14.004;2022-12-18T04:51:26;21.14;29.69
65419;DHT22;52027;50.658;14.004;2022-12-18T04:53:51;21.14;29.69
65419;DHT22;52027;50.658;14.004;2022-12-18T04:56:16;21.14;29.71
65419;DHT22;52027;50.658;14.004;2022-12-18T04:58:43;21.14;29.65
65419;DHT22;52027;50.658;14.004;2022-12-18T05:01:10;21.12;29.63
65419;DHT22;52027;50.658;14.004;2022-12-18T05:03:36;21.15;29.69
65419;DHT22;52027;50.658;14.004;2022-12-18T05:06:02;21.12;29.63
65419;DHT22;52027;50.658;14.004;2022-12-18T05:08:28;21.14;29.65
65419;DHT22;52027;50.658;14.004;2022-12-18T05:11:22;21.14;29.66
65419;DHT22;52027;50.658;14.004;2022-12-18T05:13:48;21.12;29.68
65419;DHT22;52027;50.658;14.004;2022-12-18T05:16:14;21.12;29.65
65419;DHT22;52027;50.658;14.004;2022-12-18T05:18:39;21.12;29.66
65419;DHT22;52027;50.658;14.004;2022-12-18T05:21:05;21.11;29.60
65419;DHT22;52027;50.658;14.004;2022-12-18T05:23:30;21.12;29.66
65419;DHT22;52027;50.658;14.004;2022-12-18T05:25:58;21.11;29.61
65419;DHT22;52027;50.658;14.004;2022-12-18T05:28:24;21.12;29.57
65419;DHT22;52027;50.658;14.004;2022-12-18T05:30:52;21.11;29.57
65419;DHT22;52027;50.658;14.004;2022-12-18T05:33:19;21.14;29.58
65419;DHT22;52027;50.658;14.004;2022-12-18T05:35:44;21.12;29.58
65419;DHT22;52027;50.658;14.004;2022-12-18T05:38:14;21.15;29.60
65419;DHT22;52027;50.658;14.004;2022-12-18T05:40:42;21.17;29.58
65419;DHT22;52027;50.658;14.004;2022-12-18T05:43:07;21.15;29.57
65419;DHT22;52027;50.658;14.004;2022-12-18T05:45:37;21.15;29.49
65419;DHT22;52027;50.658;14.004;2022-12-18T05:48:02;21.14;29.58
65419;DHT22;52027;50.658;14.004;2022-12-18T05:50:27;21.11;29.54
65419;DHT22;52027;50.658;14.004;2022-12-18T05:52:53;21.14;29.57
65419;DHT22;52027;50.658;14.004;2022-12-18T05:55:18;21.14;29.54
65419;DHT22;52027;50.658;14.004;2022-12-18T05:57:43;21.15;29.54
65419;DHT22;52027;50.658;14.004;2022-12-18T06:00:09;21.11;29.54
65419;DHT22;52027;50.658;14.004;2022-12-18T06:02:35;21.12;29.55
65419;DHT22;52027;50.658;14.004;2022-12-18T06:05:00;21.11;29.52
65419;DHT22;52027;50.658;14.004;2022-12-18T06:07:25;21.12;29.58
65419;DHT22;52027;50.658;14.004;2022-12-18T06:09:51;21.14;29.55
65419;DHT22;52027;50.658;14.004;2022-12-18T06:12:16;21.14;29.58
65419;DHT22;52027;50.658;14.004;2022-12-18T06:14:41;21.14;29.57
65419;DHT22;52027;50.658;14.004;2022-12-18T06:17:06;21.15;29.58
65419;DHT22;52027;50.658;14.004;2022-12-18T06:19:32;21.12;29.49
65419;DHT22;52027;50.658;14.004;2022-12-18T06:21:57;21.12;29.54
65419;DHT22;52027;50.658;14.004;2022-12-18T06:24:24;21.14;29.49
65419;DHT22;52027;50.658;14.004;2022-12-18T06:26:49;21.14;29.52
65419;DHT22;52027;50.658;14.004;2022-12-18T06:29:14;21.12;29.45
65419;DHT22;52027;50.658;14.004;2022-12-18T06:31:40;21.12;29.54
65419;DHT22;52027;50.658;14.004;2022-12-18T06:34:05;21.10;29.50
65419;DHT22;52027;50.658;14.004;2022-12-18T06:36:31;21.14;29.52
65419;DHT22;52027;50.658;14.004;2022-12-18T06:38:56;21.15;29.45
65419;DHT22;52027;50.658;14.004;2022-12-18T06:41:22;21.11;29.46
65419;DHT22;52027;50.658;14.004;2022-12-18T06:43:48;21.12;29.49
65419;DHT22;52027;50.658;14.004;2022-12-18T06:46:13;21.14;29.49
65419;DHT22;52027;50.658;14.004;2022-12-18T06:48:39;21.10;29.49
65419;DHT22;52027;50.658;14.004;2022-12-18T06:51:04;21.11;29.50
65419;DHT22;52027;50.658;14.004;2022-12-18T06:53:31;21.11;29.50
65419;DHT22;52027;50.658;14.004;2022-12-18T06:56:05;21.11;29.49
65419;DHT22;52027;50.658;14.004;2022-12-18T06:58:31;21.12;29.47
65419;DHT22;52027;50.658;14.004;2022-12-18T07:01:00;21.11;29.41
65419;DHT22;52027;50.658;14.004;2022-12-18T07:03:26;21.11;29.42
65419;DHT22;52027;50.658;14.004;2022-12-18T07:05:51;21.11;29.45
65419;DHT22;52027;50.658;14.004;2022-12-18T07:08:17;21.11;29.44
65419;DHT22;52027;50.658;14.004;2022-12-18T07:10:43;21.12;29.45
65419;DHT22;52027;50.658;14.004;2022-12-18T07:13:08;21.12;29.44
65419;DHT22;52027;50.658;14.004;2022-12-18T07:15:34;21.11;29.47
65419;DHT22;52027;50.658;14.004;2022-12-18T07:17:59;21.14;29.41
65419;DHT22;52027;50.658;14.004;2022-12-18T07:20:24;21.11;29.46
65419;DHT22;52027;50.658;14.004;2022-12-18T07:22:49;21.15;29.47
65419;DHT22;52027;50.658;14.004;2022-12-18T07:25:15;21.12;29.45
65419;DHT22;52027;50.658;14.004;2022-12-18T07:27:40;21.11;29.38
65419;DHT22;52027;50.658;14.004;2022-12-18T07:30:06;21.10;29.45
65419;DHT22;52027;50.658;14.004;2022-12-18T07:32:31;21.10;29.44
65419;DHT22;52027;50.658;14.004;2022-12-18T07:34:57;21.10;29.47
65419;DHT22;52027;50.658;14.004;2022-12-18T07:37:22;21.10;29.42
65419;DHT22;52027;50.658;14.004;2022-12-18T07:39:48;21.11;29.44
65419;DHT22;52027;50.658;14.004;2022-12-18T07:42:13;21.11;29.45
65419;DHT22;52027;50.658;14.004;2022-12-18T07:45:00;21.10;29.44
65419;DHT22;52027;50.658;14.004;2022-12-18T07:47:27;21.10;29.39
65419;DHT22;52027;50.658;14.004;2022-12-18T07:49:53;21.08;29.47
65419;DHT22;52027;50.658;14.004;2022-12-18T07:52:18;21.10;29.47
65419;DHT22;52027;50.658;14.004;2022-12-18T07:54:45;21.08;29.44
65419;DHT22;52027;50.658;14.004;2022-12-18T07:57:10;21.07;29.44
65419;DHT22;52027;50.658;14.004;2022-12-18T07:59:36;21.10;29.41
65419;DHT22;52027;50.658;14.004;2022-12-18T08:02:01;21.07;29.38
65419;DHT22;52027;50.658;14.004;2022-12-18T08:04:26;21.08;29.34
65419;DHT22;52027;50.658;14.004;2022-12-18T08:06:52;21.10;29.36
65419;DHT22;52027;50.658;14.004;2022-12-18T08:09:17;21.08;29.39
65419;DHT22;52027;50.658;14.004;2022-12-18T08:11:43;21.10;29.36
65419;DHT22;52027;50.658;14.004;2022-12-18T08:14:08;21.10;29.44
65419;DHT22;52027;50.658;14.004;2022-12-18T08:16:35;21.11;29.39
65419;DHT22;52027;50.658;14.004;2022-12-18T08:19:00;21.08;29.38
65419;DHT22;52027;50.658;14.004;2022-12-18T08:21:28;21.11;29.34
65419;DHT22;52027;50.658;14.004;2022-12-18T08:23:56;21.08;29.37
65419;DHT22;52027;50.658;14.004;2022-12-18T08:26:22;21.10;29.39
65419;DHT22;52027;50.658;14.004;2022-12-18T08:28:49;21.08;29.40
65419;DHT22;52027;50.658;14.004;2022-12-18T08:31:15;21.07;29.37
65419;DHT22;52027;50.658;14.004;2022-12-18T08:33:41;21.08;29.39
65419;DHT22;52027;50.658;14.004;2022-12-18T08:36:06;21.07;29.37
65419;DHT22;52027;50.658;14.004;2022-12-18T08:38:33;21.07;29.34
65419;DHT22;52027;50.658;14.004;2022-12-18T08:40:59;21.08;29.39
65419;DHT22;52027;50.658;14.004;2022-12-18T08:43:25;21.08;29.37
65419;DHT22;52027;50.658;14.004;2022-12-18T08:46:10;21.08;29.30
65419;DHT22;52027;50.658;14.004;2022-12-18T08:48:35;21.07;29.37
65419;DHT22;52027;50.658;14.004;2022-12-18T08:51:00;21.07;29.36
65419;DHT22;52027;50.658;14.004;2022-12-18T08:53:26;21.06;29.37
65419;DHT22;52027;50.658;14.004;2022-12-18T08:55:52;21.07;29.36
65419;DHT22;52027;50.658;14.004;2022-12-18T08:58:17;21.08;29.42
65419;DHT22;52027;50.658;14.004;2022-12-18T09:00:43;21.07;29.42
65419;DHT22;52027;50.658;14.004;2022-12-18T09:03:18;21.07;29.37
65419;DHT22;52027;50.658;14.004;2022-12-18T09:05:45;21.06;29.33
65419;DHT22;52027;50.658;14.004;2022-12-18T09:08:11;21.07;29.37
65419;DHT22;52027;50.658;14.004;2022-12-18T09:10:44;21.08;29.40
65419;DHT22;52027;50.658;14.004;2022-12-18T09:13:11;21.10;29.34
65419;DHT22;52027;50.658;14.004;2022-12-18T09:15:47;21.08;29.31
65419;DHT22;52027;50.658;14.004;2022-12-18T09:18:14;21.07;29.37
65419;DHT22;52027;50.658;14.004;2022-12-18T09:20:40;21.06;29.33
65419;DHT22;52027;50.658;14.004;2022-12-18T09:23:06;21.06;29.37
65419;DHT22;52027;50.658;14.004;2022-12-18T09:25:33;21.08;29.34
65419;DHT22;52027;50.658;14.004;2022-12-18T09:28:10;21.08;29.37
65419;DHT22;52027;50.658;14.004;2022-12-18T09:30:43;21.07;29.34
65419;DHT22;52027;50.658;14.004;2022-12-18T09:33:09;21.06;29.36
65419;DHT22;52027;50.658;14.004;2022-12-18T09:35:44;21.07;29.37
65419;DHT22;52027;50.658;14.004;2022-12-18T09:38:12;21.07;29.33
65419;DHT22;52027;50.658;14.004;2022-12-18T09:40:43;21.06;29.28
65419;DHT22;52027;50.658;14.004;2022-12-18T09:43:16;21.07;29.37
65419;DHT22;52027;50.658;14.004;2022-12-18T09:45:46;21.07;29.33
65419;DHT22;52027;50.658;14.004;2022-12-18T09:48:37;21.07;29.31
65419;DHT22;52027;50.658;14.004;2022-12-18T09:51:35;21.04;29.32
65419;DHT22;52027;50.658;14.004;2022-12-18T09:54:07;21.03;29.31
65419;DHT22;52027;50.658;14.004;2022-12-18T09:56:40;21.04;29.31
65419;DHT22;52027;50.658;14.004;2022-12-18T09:59:18;21.03;29.34
65419;DHT22;52027;50.658;14.004;2022-12-18T10:01:45;21.03;29.31
65419;DHT22;52027;50.658;14.004;2022-12-18T10:04:10;21.06;29.26
65419;DHT22;52027;50.658;14.004;2022-12-18T10:06:45;21.06;29.31
65419;DHT22;52027;50.658;14.004;2022-12-18T10:14:34;21.01;29.37
65419;DHT22;52027;50.658;14.004;2022-12-18T10:17:28;21.01;29.38
65419;DHT22;52027;50.658;14.004;2022-12-18T10:20:04;20.97;29.38
65419;DHT22;52027;50.658;14.004;2022-12-18T10:25:22;20.98;29.35
65419;DHT22;52027;50.658;14.004;2022-12-18T10:27:53;20.98;29.41
65419;DHT22;52027;50.658;14.004;2022-12-18T10:30:22;20.97;29.42
65419;DHT22;52027;50.658;14.004;2022-12-18T10:32:48;21.00;29.40
65419;DHT22;52027;50.658;14.004;2022-12-18T10:35:23;20.98;29.33
65419;DHT22;52027;50.658;14.004;2022-12-18T10:40:28;21.00;29.31
65419;DHT22;52027;50.658;14.004;2022-12-18T10:43:04;20.98;29.35
65419;DHT22;52027;50.658;14.004;2022-12-18T10:45:30;20.97;29.35
65419;DHT22;52027;50.658;14.004;2022-12-18T10:47:56;20.98;29.33
65419;DHT22;52027;50.658;14.004;2022-12-18T10:50:39;20.97;29.33
65419;DHT22;52027;50.658;14.004;2022-12-18T10:53:05;20.98;29.29
65419;DHT22;52027;50.658;14.004;2022-12-18T10:55:38;20.98;29.30
65419;DHT22;52027;50.658;14.004;2022-12-18T10:58:28;20.97;29.32
65419;DHT22;52027;50.658;14.004;2022-12-18T11:08:28;20.94;29.35
65419;DHT22;52027;50.658;14.004;2022-12-18T11:10:53;20.93;29.35
65419;DHT22;52027;50.658;14.004;2022-12-18T11:13:26;20.94;29.36
65419;DHT22;52027;50.658;14.004;2022-12-18T11:15:52;20.97;29.32
65419;DHT22;52027;50.658;14.004;2022-12-18T11:18:30;20.96;29.36
65419;DHT22;52027;50.658;14.004;2022-12-18T11:21:08;20.94;29.35
65419;DHT22;52027;50.658;14.004;2022-12-18T11:23:34;20.91;29.38
65419;DHT22;52027;50.658;14.004;2022-12-18T11:26:04;20.93;29.38
65419;DHT22;52027;50.658;14.004;2022-12-18T11:28:49;20.90;29.38
65419;DHT22;52027;50.658;14.004;2022-12-18T11:31:22;20.90;29.38
65419;DHT22;52027;50.658;14.004;2022-12-18T11:34:01;20.91;29.38
65419;DHT22;52027;50.658;14.004;2022-12-18T11:36:31;20.88;29.33
65419;DHT22;52027;50.658;14.004;2022-12-18T11:39:01;20.90;29.36
65419;DHT22;52027;50.658;14.004;2022-12-18T11:49:51;20.87;29.37
65419;DHT22;52027;50.658;14.004;2022-12-18T11:54:52;20.87;29.42
65419;DHT22;52027;50.658;14.004;2022-12-18T12:11:39;20.81;29.47
65419;DHT22;52027;50.658;14.004;2022-12-18T12:20:02;20.81;29.42
65419;DHT22;52027;50.658;14.004;2022-12-18T12:30:22;20.81;29.38
65419;DHT22;52027;50.658;14.004;2022-12-18T12:38:12;20.80;29.42
65419;DHT22;52027;50.658;14.004;2022-12-18T12:40:45;20.80;29.38
65419;DHT22;52027;50.658;14.004;2022-12-18T12:43:22;20.80;29.40
65419;DHT22;52027;50.658;14.004;2022-12-18T12:46:05;20.79;29.40
65419;DHT22;52027;50.658;14.004;2022-12-18T12:48:43;20.80;29.37
65419;DHT22;52027;50.658;14.004;2022-12-18T12:51:14;20.80;29.32
65419;DHT22;52027;50.658;14.004;2022-12-18T12:53:41;20.80;29.30
65419;DHT22;52027;50.658;14.004;2022-12-18T12:56:07;20.80;29.38
65419;DHT22;52027;50.658;14.004;2022-12-18T13:06:23;20.77;29.37
65419;DHT22;52027;50.658;14.004;2022-12-18T13:08:58;20.76;29.43
65419;DHT22;52027;50.658;14.004;2022-12-18T13:11:34;20.75;29.40
65419;DHT22;52027;50.658;14.004;2022-12-18T13:14:30;20.77;29.38
65419;DHT22;52027;50.658;14.004;2022-12-18T13:20:08;20.75;29.38
65419;DHT22;52027;50.658;14.004;2022-12-18T13:22:37;20.70;29.36
65419;DHT22;52027;50.658;14.004;2022-12-18T13:25:26;20.72;29.39
65419;DHT22;52027;50.658;14.004;2022-12-18T13:28:01;20.70;29.44
65419;DHT22;52027;50.658;14.004;2022-12-18T13:40:59;20.70;29.38
65419;DHT22;52027;50.658;14.004;2022-12-18T13:46:17;20.69;29.36
65419;DHT22;52027;50.658;14.004;2022-12-18T13:49:00;20.70;29.41
65419;DHT22;52027;50.658;14.004;2022-12-18T13:51:28;20.69;29.37
65419;DHT22;52027;50.658;14.004;2022-12-18T13:56:47;20.66;29.33
65419;DHT22;52027;50.658;14.004;2022-12-18T13:59:23;20.67;29.42
65419;DHT22;52027;50.658;14.004;2022-12-18T14:06:55;20.66;29.40
65419;DHT22;52027;50.658;14.004;2022-12-18T14:09:25;20.63;29.42
65419;DHT22;52027;50.658;14.004;2022-12-18T14:11:51;20.63;29.45
65419;DHT22;52027;50.658;14.004;2022-12-18T14:14:18;20.65;29.41
65419;DHT22;52027;50.658;14.004;2022-12-18T14:16:45;20.63;29.37
65419;DHT22;52027;50.658;14.004;2022-12-18T14:19:17;20.63;29.38
65419;DHT22;52027;50.658;14.004;2022-12-18T14:21:49;20.62;29.39
65419;DHT22;52027;50.658;14.004;2022-12-18T14:24:18;20.62;29.37
65419;DHT22;52027;50.658;14.004;2022-12-18T14:26:44;20.62;29.39
65419;DHT22;52027;50.658;14.004;2022-12-18T14:31:44;20.62;29.42
65419;DHT22;52027;50.658;14.004;2022-12-18T14:34:17;20.62;29.39
65419;DHT22;52027;50.658;14.004;2022-12-18T14:36:52;20.62;29.34
65419;DHT22;52027;50.658;14.004;2022-12-18T14:39:18;20.60;29.43
65419;DHT22;52027;50.658;14.004;2022-12-18T14:41:43;20.59;29.40
65419;DHT22;52027;50.658;14.004;2022-12-18T14:44:12;20.60;29.37
65419;DHT22;52027;50.658;14.004;2022-12-18T14:46:42;20.60;29.43
65419;DHT22;52027;50.658;14.004;2022-12-18T14:51:55;20.59;29.38
65419;DHT22;52027;50.658;14.004;2022-12-18T14:54:22;20.60;29.41
65419;DHT22;52027;50.658;14.004;2022-12-18T14:56:50;20.62;29.43
65419;DHT22;52027;50.658;14.004;2022-12-18T14:59:20;20.62;29.42
65419;DHT22;52027;50.658;14.004;2022-12-18T15:04:37;20.62;29.37
65419;DHT22;52027;50.658;14.004;2022-12-18T15:07:21;20.63;29.35
65419;DHT22;52027;50.658;14.004;2022-12-18T15:12:45;20.62;29.31
65419;DHT22;52027;50.658;14.004;2022-12-18T15:18:03;20.65;29.35
65419;DHT22;52027;50.658;14.004;2022-12-18T15:20:39;20.62;29.35
65419;DHT22;52027;50.658;14.004;2022-12-18T15:23:22;20.60;29.34
65419;DHT22;52027;50.658;14.004;2022-12-18T15:26:03;20.65;29.37
65419;DHT22;52027;50.658;14.004;2022-12-18T15:28:44;20.65;29.31
65419;DHT22;52027;50.658;14.004;2022-12-18T15:33:39;20.65;29.34
65419;DHT22;52027;50.658;14.004;2022-12-18T15:36:09;20.63;29.36
65419;DHT22;52027;50.658;14.004;2022-12-18T15:38:35;20.70;29.37
65419;DHT22;52027;50.658;14.004;2022-12-18T15:41:01;20.67;29.36
65419;DHT22;52027;50.658;14.004;2022-12-18T15:43:30;20.70;29.25
65419;DHT22;52027;50.658;14.004;2022-12-18T15:45:59;20.70;29.27
65419;DHT22;52027;50.658;14.004;2022-12-18T15:48:24;20.70;29.27
65419;DHT22;52027;50.658;14.004;2022-12-18T15:50:52;20.70;29.30
65419;DHT22;52027;50.658;14.004;2022-12-18T15:53:18;20.70;29.25
65419;DHT22;52027;50.658;14.004;2022-12-18T15:55:44;20.72;29.25
65419;DHT22;52027;50.658;14.004;2022-12-18T15:58:28;20.73;29.25
65419;DHT22;52027;50.658;14.004;2022-12-18T16:00:55;20.72;29.23
65419;DHT22;52027;50.658;14.004;2022-12-18T16:03:21;20.73;29.27
65419;DHT22;52027;50.658;14.004;2022-12-18T16:05:46;20.73;29.25
65419;DHT22;52027;50.658;14.004;2022-12-18T16:08:12;20.73;29.24
65419;DHT22;52027;50.658;14.004;2022-12-18T16:10:37;20.72;29.14
65419;DHT22;52027;50.658;14.004;2022-12-18T16:13:03;20.76;29.14
65419;DHT22;52027;50.658;14.004;2022-12-18T16:15:28;20.75;29.14
65419;DHT22;52027;50.658;14.004;2022-12-18T16:17:53;20.73;29.14
65419;DHT22;52027;50.658;14.004;2022-12-18T16:20:20;20.76;29.20
65419;DHT22;52027;50.658;14.004;2022-12-18T16:22:47;20.75;29.20
65419;DHT22;52027;50.658;14.004;2022-12-18T16:25:27;20.75;29.19
65419;DHT22;52027;50.658;14.004;2022-12-18T16:27:54;20.73;29.17
65419;DHT22;52027;50.658;14.004;2022-12-18T16:30:30;20.75;29.16
65419;DHT22;52027;50.658;14.004;2022-12-18T16:32:57;20.75;29.22
65419;DHT22;52027;50.658;14.004;2022-12-18T16:35:25;20.72;29.14
65419;DHT22;52027;50.658;14.004;2022-12-18T16:37:50;20.73;29.19
65419;DHT22;52027;50.658;14.004;2022-12-18T16:40:16;20.73;29.24
65419;DHT22;52027;50.658;14.004;2022-12-18T16:42:43;20.73;29.19
65419;DHT22;52027;50.658;14.004;2022-12-18T16:45:12;20.73;29.16
65419;DHT22;52027;50.658;14.004;2022-12-18T16:47:38;20.72;29.20
65419;DHT22;52027;50.658;14.004;2022-12-18T16:50:04;20.75;29.20
65419;DHT22;52027;50.658;14.004;2022-12-18T16:52:30;20.73;29.24
65419;DHT22;52027;50.658;14.004;2022-12-18T16:54:55;20.73;29.19
65419;DHT22;52027;50.658;14.004;2022-12-18T16:57:21;20.76;29.22
65419;DHT22;52027;50.658;14.004;2022-12-18T16:59:47;20.73;29.20
65419;DHT22;52027;50.658;14.004;2022-12-18T17:04:40;20.75;29.20
65419;DHT22;52027;50.658;14.004;2022-12-18T17:07:06;20.75;29.11
65419;DHT22;52027;50.658;14.004;2022-12-18T17:09:31;20.75;29.03
65419;DHT22;52027;50.658;14.004;2022-12-18T17:11:56;20.77;29.05
65419;DHT22;52027;50.658;14.004;2022-12-18T17:14:23;20.79;29.05
65419;DHT22;52027;50.658;14.004;2022-12-18T17:16:49;20.79;29.04
65419;DHT22;52027;50.658;14.004;2022-12-18T17:19:14;20.79;29.02
65419;DHT22;52027;50.658;14.004;2022-12-18T17:21:41;20.79;29.05
65419;DHT22;52027;50.658;14.004;2022-12-18T17:24:07;20.77;29.05
65419;DHT22;52027;50.658;14.004;2022-12-18T17:26:33;20.76;29.10
65419;DHT22;52027;50.658;14.004;2022-12-18T17:28:59;20.75;29.11
65419;DHT22;52027;50.658;14.004;2022-12-18T17:31:26;20.76;29.11
65419;DHT22;52027;50.658;14.004;2022-12-18T17:33:52;20.75;29.11
65419;DHT22;52027;50.658;14.004;2022-12-18T17:36:19;20.72;29.14
65419;DHT22;52027;50.658;14.004;2022-12-18T17:38:55;20.75;29.08
65419;DHT22;52027;50.658;14.004;2022-12-18T17:41:21;20.77;29.11
65419;DHT22;52027;50.658;14.004;2022-12-18T17:43:55;20.75;29.14
65419;DHT22;52027;50.658;14.004;2022-12-18T17:46:21;20.75;29.10